Main page
METAR-TAF:

METAR-TAF

Airports :

Mthatha Airport

Mthatha, South Africa

latitude: 31-32-47S, longitude: 028-40-31E, elevation: 740 m

Current weather observation

The report was made 16 minutes ago, at 10:00 UTC
Wind 8 kt from the South
Temperature 24°C
Humidity 38%
Pressure 1017 hPa
Visibility 10 km or more
no clouds below 1500 m and no cumulonimbus

METAR: FAUT 191000Z 18008KT CAVOK 24/09 Q1017

Time: 12:16 (10:16 UTC)

Forecast

The report was made 1 hour and 16 minutes ago, at 09:00 UTC
Forecast valid from 19 at 10 UTC to 19 at 18 UTC
Wind 10 kt from the South
Visibility 10 km or more
no clouds below 1500 m and no cumulonimbus
Becoming
from 19 at 12 UTC to 19 at 14 UTC
Visibility 10 km or more
Broken clouds at a height of 2500 ft
Temporary
from 19 at 15 UTC to 19 at 18 UTC
Visibility: 4500 m
Scattered clouds at a height of 2500 ft, Towering cumulus.
rain showers

TAF: FAUT 190900Z 1910/1918 17010KT CAVOK BECMG 1912/1914 9999 BKN025 TEMPO 1915/1918 4500 SHRA SCT025TCU TX25/1912Z TN13/1918Z

Weather observations and forecasts of more than 4000 airports (METAR and TAF reports).

The available stations are represented by yellow and red dots on the map.

Hover mouse over dot to see the name of the station.

Then click to see weather observations and forecasts.

To change the map : click on the green buttons with a black cross to zoom in, on the green button with a dash to zoom out, or on the green arrows for adjacent maps.


METAR-TAF: